Time;durP1;ratioP1;P1;durP2;ratioP2;P2;SDS_P1;SDS_P2;PMS_P1;PMS_P2;Temp;Humidity;BMP_temperature;BMP_pressure;BME280_temperature;BME280_humidity;BME280_pressure;Samples;Min_cycle;Max_cycle;Signal;HPM_P1;HPM_P2
2023/04/19 00:00:46;;;;;;;22.42;12.70;;;;;9.90;96828.00;;;;8283460;28;20628;-73
2023/04/19 00:04:54;;;;;;;24.13;12.40;;;;;9.90;96822.00;;;;8312188;28;20307;-74
2023/04/19 00:09:00;;;;;;;24.27;12.52;;;;;9.80;96819.00;;;;8314750;28;20617;-74
2023/04/19 00:13:08;;;;;;;27.23;13.20;;;;;9.80;96818.00;;;;8315753;28;20218;-74
2023/04/19 00:17:12;;;;;;;27.08;14.15;;;;;9.70;96808.00;;;;8314958;28;20257;-73
2023/04/19 00:21:17;;;;;;;20.05;11.63;;;;;9.70;96813.00;;;;8313607;28;20193;-73
2023/04/19 00:25:21;;;;;;;25.67;13.03;;;;;9.70;96810.00;;;;8278854;28;20194;-73
2023/04/19 00:29:28;;;;;;;24.27;13.07;;;;;9.70;96801.00;;;;8316373;28;20544;-73
2023/04/19 00:33:34;;;;;;;21.60;12.67;;;;;9.70;96799.00;;;;8314712;28;20236;-73
2023/04/19 00:37:39;;;;;;;22.85;11.60;;;;;9.70;96796.00;;;;8313619;28;20201;-73
2023/04/19 00:41:44;;;;;;;21.85;11.68;;;;;9.70;96797.00;;;;8313349;28;20193;-73
2023/04/19 00:45:50;;;;;;;20.58;10.25;;;;;9.80;96792.00;;;;8313375;28;20210;-73
2023/04/19 00:49:54;;;;;;;27.15;13.25;;;;;9.80;96792.00;;;;8315249;28;20216;-73
2023/04/19 00:54:02;;;;;;;27.77;14.10;;;;;9.80;96785.00;;;;8313679;28;20283;-73
2023/04/19 00:58:06;;;;;;;27.05;13.55;;;;;9.80;96778.00;;;;8303914;28;20555;-73
2023/04/19 01:02:10;;;;;;;24.58;13.57;;;;;9.80;96774.00;;;;8315467;28;20231;-73
2023/04/19 01:06:14;;;;;;;30.02;13.98;;;;;9.80;96776.00;;;;8293354;28;20222;-73
2023/04/19 01:10:20;;;;;;;27.33;13.65;;;;;9.70;96773.00;;;;8308717;28;20248;-74
2023/04/19 01:14:23;;;;;;;28.13;15.32;;;;;9.80;96766.00;;;;8315283;28;20283;-74
2023/04/19 01:18:31;;;;;;;28.45;14.38;;;;;9.70;96762.00;;;;8312478;28;20241;-73
2023/04/19 01:22:36;;;;;;;26.65;13.15;;;;;9.70;96760.00;;;;8314295;28;20213;-73
2023/04/19 01:26:39;;;;;;;29.33;14.60;;;;;9.70;96760.00;;;;8316070;28;20224;-72
2023/04/19 01:30:43;;;;;;;25.33;13.50;;;;;9.70;96743.00;;;;8307800;28;20214;-73
2023/04/19 01:34:49;;;;;;;27.30;13.77;;;;;9.70;96739.00;;;;8314561;28;20351;-72
2023/04/19 01:38:54;;;;;;;25.75;14.20;;;;;9.70;96735.00;;;;8297969;28;20202;-73
2023/04/19 01:42:59;;;;;;;26.13;13.70;;;;;9.60;96731.00;;;;8314001;28;20681;-74
2023/04/19 01:47:05;;;;;;;29.97;14.30;;;;;9.50;96732.00;;;;8308843;28;20663;-74
2023/04/19 01:51:12;;;;;;;27.23;14.43;;;;;9.50;96734.00;;;;8309248;28;20212;-73
2023/04/19 01:55:17;;;;;;;31.75;15.70;;;;;9.50;96726.00;;;;8311851;28;20197;-73
2023/04/19 01:59:21;;;;;;;31.35;15.07;;;;;9.50;96734.00;;;;8311107;28;20201;-74
2023/04/19 02:03:24;;;;;;;29.08;15.50;;;;;9.50;96729.00;;;;8315885;28;20252;-73
2023/04/19 02:07:32;;;;;;;30.80;14.37;;;;;9.60;96739.00;;;;8320244;28;20705;-74
2023/04/19 02:11:39;;;;;;;29.13;14.68;;;;;9.60;96717.00;;;;8298759;28;20325;-73
2023/04/19 02:15:42;;;;;;;29.63;14.30;;;;;9.60;96719.00;;;;8314983;28;20643;-73
2023/04/19 02:19:48;;;;;;;31.15;15.38;;;;;9.60;96715.00;;;;8317623;28;20489;-72
2023/04/19 02:23:51;;;;;;;30.63;15.40;;;;;9.50;96707.00;;;;8320076;28;20198;-74
2023/04/19 02:27:55;;;;;;;31.93;16.20;;;;;9.50;96707.00;;;;8318716;28;20625;-73
2023/04/19 02:31:58;;;;;;;33.08;17.10;;;;;9.40;96700.00;;;;8314269;28;20284;-73
2023/04/19 02:36:03;;;;;;;34.60;16.60;;;;;9.30;96694.00;;;;8318915;28;20200;-73
2023/04/19 02:40:08;;;;;;;31.70;14.70;;;;;9.20;96695.00;;;;8320292;28;20236;-73
2023/04/19 02:44:12;;;;;;;33.38;15.90;;;;;9.10;96695.00;;;;8293114;28;20218;-73
2023/04/19 02:48:21;;;;;;;33.63;16.55;;;;;9.10;96682.00;;;;8313948;28;20202;-74
2023/04/19 02:52:25;;;;;;;32.38;15.30;;;;;9.10;96680.00;;;;8309515;28;20592;-73
2023/04/19 02:56:28;;;;;;;34.95;17.67;;;;;9.00;96678.00;;;;8313534;28;20193;-73
2023/04/19 03:00:36;;;;;;;36.87;17.77;;;;;9.00;96674.00;;;;8315918;28;20225;-73
2023/04/19 03:04:39;;;;;;;34.40;16.63;;;;;8.90;96666.00;;;;8359931;22;20228;-73
2023/04/19 03:08:42;;;;;;;37.10;16.55;;;;;8.90;96668.00;;;;8338811;28;20198;-73
2023/04/19 03:12:48;;;;;;;37.47;18.07;;;;;8.90;96664.00;;;;8340433;28;20282;-72
2023/04/19 03:16:53;;;;;;;37.63;16.45;;;;;8.80;96661.00;;;;8336314;28;20193;-73
2023/04/19 03:20:57;;;;;;;33.43;16.33;;;;;8.80;96659.00;;;;8334234;28;20208;-74
2023/04/19 03:25:00;;;;;;;31.50;16.90;;;;;8.70;96644.00;;;;8333661;28;20780;-74
2023/04/19 03:29:06;;;;;;;31.27;16.50;;;;;8.70;96644.00;;;;8339016;28;20220;-74
2023/04/19 03:33:10;;;;;;;34.17;16.30;;;;;8.60;96634.00;;;;8331722;28;20228;-73
2023/04/19 03:37:15;;;;;;;33.27;15.20;;;;;8.60;96641.00;;;;8340128;28;21410;-73
2023/04/19 03:41:19;;;;;;;39.47;16.87;;;;;8.50;96629.00;;;;8340015;28;20267;-74
2023/04/19 03:45:26;;;;;;;45.33;20.73;;;;;8.50;96626.00;;;;8337040;28;20295;-74
2023/04/19 03:49:32;;;;;;;42.33;19.43;;;;;8.50;96623.00;;;;8342351;28;20201;-73
2023/04/19 03:53:36;;;;;;;42.05;19.13;;;;;8.40;96621.00;;;;8345207;28;20228;-74
2023/04/19 03:57:39;;;;;;;37.67;18.27;;;;;8.40;96621.00;;;;8343527;28;20244;-73
2023/04/19 04:01:44;;;;;;;40.57;17.97;;;;;8.30;96616.00;;;;8347093;28;20858;-74
2023/04/19 04:05:51;;;;;;;44.30;19.63;;;;;8.30;96620.00;;;;8351387;28;20205;-74
2023/04/19 04:09:54;;;;;;;41.53;19.67;;;;;8.20;96616.00;;;;8355255;28;20242;-74
2023/04/19 04:13:57;;;;;;;55.30;22.10;;;;;8.20;96619.00;;;;8346032;28;20798;-73
2023/04/19 04:18:02;;;;;;;44.45;18.80;;;;;8.20;96618.00;;;;8348313;28;20204;-73
2023/04/19 04:22:08;;;;;;;45.58;19.75;;;;;8.20;96613.00;;;;8349858;28;20299;-74
2023/04/19 04:26:16;;;;;;;35.50;17.47;;;;;8.10;96618.00;;;;8358337;28;20196;-74
2023/04/19 04:30:19;;;;;;;39.60;17.67;;;;;8.10;96618.00;;;;8356528;28;20197;-75
2023/04/19 04:34:23;;;;;;;48.00;20.93;;;;;8.10;96621.00;;;;8359911;28;20277;-75
2023/04/19 04:38:36;;;;;;;43.30;20.07;;;;;8.20;96622.00;;;;8349130;28;20258;-74
2023/04/19 04:42:39;;;;;;;40.28;19.40;;;;;8.20;96618.00;;;;8348984;28;20205;-75
2023/04/19 04:46:43;;;;;;;41.60;19.50;;;;;8.20;96618.00;;;;8357775;28;20216;-74
2023/04/19 04:50:53;;;;;;;40.65;19.35;;;;;8.20;96623.00;;;;8356098;28;20201;-74
2023/04/19 04:55:00;;;;;;;43.25;17.25;;;;;8.20;96617.00;;;;8351183;28;20750;-73
2023/04/19 04:59:05;;;;;;;41.73;19.03;;;;;8.20;96618.00;;;;8341537;28;20254;-73
2023/04/19 05:03:07;;;;;;;43.97;19.50;;;;;8.20;96613.00;;;;8353833;28;20323;-73
2023/04/19 05:07:14;;;;;;;36.38;16.95;;;;;8.30;96617.00;;;;8351898;28;20193;-75
2023/04/19 05:11:18;;;;;;;42.17;17.77;;;;;8.40;96609.00;;;;8362923;28;20193;-74
2023/04/19 05:15:23;;;;;;;44.22;19.25;;;;;8.50;96615.00;;;;8360229;28;20259;-75
2023/04/19 05:19:33;;;;;;;40.55;18.52;;;;;8.70;96617.00;;;;8336358;28;20216;-73
2023/04/19 05:23:37;;;;;;;36.00;16.48;;;;;8.80;96622.00;;;;8345845;28;20262;-74
2023/04/19 05:27:41;;;;;;;39.55;18.70;;;;;9.00;96623.00;;;;8350842;28;20273;-73
2023/04/19 05:31:49;;;;;;;36.67;18.40;;;;;9.10;96617.00;;;;8350355;28;20188;-74
2023/04/19 05:35:53;;;;;;;38.73;17.87;;;;;9.30;96606.00;;;;8352310;28;20255;-74
2023/04/19 05:39:59;;;;;;;39.28;18.45;;;;;9.50;96593.00;;;;8351258;28;20203;-74
2023/04/19 05:44:04;;;;;;;35.67;17.10;;;;;9.70;96599.00;;;;8362482;28;20223;-74
2023/04/19 05:48:09;;;;;;;41.03;19.42;;;;;9.70;96591.00;;;;8344877;28;20222;-74
2023/04/19 05:52:14;;;;;;;33.08;15.32;;;;;9.70;96588.00;;;;8342231;28;20203;-73
2023/04/19 05:56:20;;;;;;;37.15;17.00;;;;;9.70;96582.00;;;;8364567;28;20298;-74
2023/04/19 06:00:26;;;;;;;28.63;16.17;;;;;9.80;96584.00;;;;8358784;28;20363;-73
2023/04/19 06:04:29;;;;;;;32.38;17.55;;;;;9.90;96592.00;;;;8356027;28;21875;-74
2023/04/19 06:08:36;;;;;;;32.50;15.93;;;;;10.00;96596.00;;;;8354447;28;20204;-73
2023/04/19 06:12:39;;;;;;;34.30;17.13;;;;;10.20;96584.00;;;;8350694;28;20539;-74
2023/04/19 06:16:46;;;;;;;30.98;16.13;;;;;10.20;96590.00;;;;8359562;28;20238;-74
2023/04/19 06:20:49;;;;;;;35.13;16.00;;;;;10.40;96589.00;;;;8357381;28;20611;-74
2023/04/19 06:24:52;;;;;;;30.92;15.90;;;;;10.40;96586.00;;;;8354631;28;20225;-71
2023/04/19 06:28:57;;;;;;;28.17;15.35;;;;;10.40;96584.00;;;;8355567;28;20216;-73
2023/04/19 06:33:02;;;;;;;28.85;15.88;;;;;10.40;96583.00;;;;8353296;28;20200;-72
2023/04/19 06:37:12;;;;;;;27.02;14.55;;;;;10.50;96583.00;;;;8354864;28;20615;-72
2023/04/19 06:41:17;;;;;;;28.45;14.85;;;;;10.50;96581.00;;;;8367158;28;20764;-73
2023/04/19 06:45:20;;;;;;;23.77;14.07;;;;;10.50;96580.00;;;;8357833;28;20291;-73
2023/04/19 06:49:25;;;;;;;24.35;13.55;;;;;10.40;96574.00;;;;8361059;28;20204;-74
2023/04/19 06:53:28;;;;;;;27.38;13.80;;;;;10.40;96566.00;;;;8363178;28;20580;-73
2023/04/19 06:57:34;;;;;;;23.65;13.82;;;;;10.30;96572.00;;;;8358542;28;20200;-73
2023/04/19 07:01:37;;;;;;;25.52;13.55;;;;;10.30;96568.00;;;;8336596;28;20238;-73
2023/04/19 07:05:42;;;;;;;28.05;15.43;;;;;10.30;96563.00;;;;8354829;28;20193;-72
2023/04/19 07:09:47;;;;;;;24.38;13.75;;;;;10.30;96562.00;;;;8356803;28;20197;-74
2023/04/19 07:13:53;;;;;;;28.40;13.43;;;;;10.30;96561.00;;;;8354534;28;20259;-74
2023/04/19 07:17:56;;;;;;;25.27;13.50;;;;;10.30;96556.00;;;;8361066;28;20201;-74
2023/04/19 07:22:01;;;;;;;23.73;13.65;;;;;10.30;96555.00;;;;8361795;28;20192;-75
2023/04/19 07:26:05;;;;;;;21.65;12.70;;;;;10.20;96558.00;;;;8353189;28;20927;-75
2023/04/19 07:30:09;;;;;;;25.38;13.07;;;;;10.20;96558.00;;;;8351005;28;20198;-74
2023/04/19 07:34:15;;;;;;;24.67;13.88;;;;;10.00;96554.00;;;;8360188;28;20309;-78
2023/04/19 07:38:23;;;;;;;29.92;14.20;;;;;9.80;96549.00;;;;8361362;28;20200;-73
2023/04/19 07:42:29;;;;;;;26.63;13.48;;;;;9.70;96548.00;;;;8357214;28;20202;-74
2023/04/19 07:46:34;;;;;;;29.50;14.88;;;;;9.60;96548.00;;;;8354220;28;20203;-74
2023/04/19 07:50:37;;;;;;;28.90;15.02;;;;;9.60;96547.00;;;;8359767;28;20201;-75
2023/04/19 07:54:42;;;;;;;32.63;15.32;;;;;9.60;96546.00;;;;8362193;28;20228;-77
2023/04/19 07:58:45;;;;;;;31.35;15.50;;;;;9.50;96551.00;;;;8352097;28;20204;-77
2023/04/19 08:02:56;;;;;;;33.33;15.35;;;;;9.50;96547.00;;;;8359800;28;20242;-77
2023/04/19 08:07:01;;;;;;;33.67;14.52;;;;;9.50;96544.00;;;;8357473;28;20205;-77
2023/04/19 08:11:08;;;;;;;42.85;18.02;;;;;9.60;96542.00;;;;8356917;28;20560;-77
2023/04/19 08:15:12;;;;;;;33.25;15.80;;;;;9.60;96533.00;;;;8351854;28;20230;-77
2023/04/19 08:19:36;;;;;;;44.30;16.60;;;;;9.60;96536.00;;;;8353067;28;20244;-78
2023/04/19 08:23:41;;;;;;;31.15;15.65;;;;;9.60;96534.00;;;;8351865;28;20218;-77
2023/04/19 08:27:51;;;;;;;38.33;15.90;;;;;9.70;96538.00;;;;8353248;28;20204;-77
2023/04/19 08:31:54;;;;;;;35.80;16.17;;;;;9.80;96531.00;;;;8351864;28;20216;-77
2023/04/19 08:35:58;;;;;;;29.15;15.75;;;;;9.80;96526.00;;;;8351365;28;20231;-78
2023/04/19 08:40:01;;;;;;;31.15;15.05;;;;;9.90;96528.00;;;;8359653;28;20202;-77
2023/04/19 08:44:06;;;;;;;35.08;15.82;;;;;9.90;96518.00;;;;8374768;28;20206;-78
2023/04/19 08:48:11;;;;;;;32.25;15.70;;;;;10.00;96526.00;;;;8361709;28;20662;-77
2023/04/19 08:52:17;;;;;;;32.63;15.45;;;;;10.00;96512.00;;;;8361622;28;20218;-76
2023/04/19 08:56:22;;;;;;;33.40;16.38;;;;;10.00;96520.00;;;;8339054;28;20273;-77
2023/04/19 09:00:40;;;;;;;31.17;15.00;;;;;9.90;96515.00;;;;8354024;28;20201;-76
2023/04/19 09:04:43;;;;;;;33.55;16.45;;;;;10.00;96518.00;;;;8367812;28;20227;-77
2023/04/19 09:08:50;;;;;;;33.40;14.85;;;;;9.90;96510.00;;;;8344832;28;20240;-77
2023/04/19 09:13:03;;;;;;;35.95;16.05;;;;;9.90;96506.00;;;;8353208;28;20212;-77
2023/04/19 09:17:14;;;;;;;31.85;14.70;;;;;9.90;96501.00;;;;8361883;28;20228;-77
2023/04/19 09:21:28;;;;;;;32.88;15.15;;;;;10.00;96505.00;;;;8359892;28;20279;-78
2023/04/19 09:25:31;;;;;;;38.60;15.07;;;;;10.00;96504.00;;;;8367514;28;20233;-79
2023/04/19 09:29:57;;;;;;;30.40;15.98;;;;;10.10;96498.00;;;;8347986;28;20197;-77
2023/04/19 09:34:22;;;;;;;30.50;13.50;;;;;10.10;96486.00;;;;8357999;28;20207;-77
2023/04/19 09:38:26;;;;;;;27.98;13.80;;;;;10.10;96494.00;;;;8360132;28;20203;-77
2023/04/19 09:42:46;;;;;;;29.70;13.13;;;;;10.10;96498.00;;;;8364321;28;20217;-77
2023/04/19 09:46:52;;;;;;;28.13;13.23;;;;;10.10;96492.00;;;;8357196;28;20207;-77
2023/04/19 09:50:59;;;;;;;29.83;14.25;;;;;9.90;96496.00;;;;8363071;28;20192;-76
2023/04/19 09:55:10;;;;;;;33.63;15.07;;;;;9.60;96494.00;;;;8352508;28;20303;-75
2023/04/19 09:59:29;;;;;;;34.08;15.40;;;;;9.40;96494.00;;;;8363059;28;20238;-78
2023/04/19 10:03:32;;;;;;;27.77;11.27;;;;;9.10;96492.00;;;;8362445;28;20228;-77
2023/04/19 10:07:40;;;;;;;25.87;13.23;;;;;9.10;96500.00;;;;8362190;28;20200;-77
2023/04/19 10:11:50;;;;;;;28.80;14.03;;;;;8.90;96487.00;;;;8348301;28;20194;-76
2023/04/19 10:16:00;;;;;;;38.47;15.70;;;;;8.80;96487.00;;;;8365713;28;20631;-75
2023/04/19 10:20:24;;;;;;;39.00;16.25;;;;;8.70;96484.00;;;;8356438;28;20200;-75
2023/04/19 10:24:30;;;;;;;45.00;18.00;;;;;8.60;96493.00;;;;8359582;28;20193;-75
2023/04/19 10:28:36;;;;;;;40.03;17.23;;;;;8.60;96477.00;;;;8351368;28;20205;-75
2023/04/19 10:32:41;;;;;;;45.50;15.73;;;;;8.50;96483.00;;;;8360098;28;20918;-76
2023/04/19 10:36:47;;;;;;;41.03;16.95;;;;;8.40;96484.00;;;;8362847;28;20585;-77
2023/04/19 10:41:03;;;;;;;36.70;14.10;;;;;8.30;96483.00;;;;8368136;28;20197;-76
2023/04/19 10:45:31;;;;;;;40.97;15.37;;;;;8.30;96478.00;;;;8355518;28;20197;-78
2023/04/19 10:49:44;;;;;;;41.80;16.70;;;;;8.30;96474.00;;;;8364307;28;20790;-78
2023/04/19 10:53:57;;;;;;;50.30;18.53;;;;;8.40;96466.00;;;;8350206;28;20205;-78
2023/04/19 10:58:08;;;;;;;41.35;17.33;;;;;8.40;96453.00;;;;8364299;28;20254;-80
2023/04/19 11:02:35;;;;;;;31.17;13.73;;;;;8.50;96448.00;;;;8358175;28;20224;-81
2023/04/19 11:06:56;;;;;;;25.47;11.03;;;;;8.80;96446.00;;;;8350179;28;20197;-81
2023/04/19 11:10:59;;;;;;;28.67;12.07;;;;;9.20;96436.00;;;;8341284;28;20280;-79
2023/04/19 11:15:08;;;;;;;32.77;15.07;;;;;9.60;96438.00;;;;8357756;28;20297;-81
2023/04/19 11:19:14;;;;;;;24.13;11.25;;;;;9.70;96434.00;;;;8378674;28;20242;-75
2023/04/19 11:23:18;;;;;;;35.75;13.15;;;;;10.00;96435.00;;;;8359523;28;20197;-75
2023/04/19 11:27:21;;;;;;;34.00;14.13;;;;;9.90;96424.00;;;;8359115;28;20698;-74
2023/04/19 11:31:26;;;;;;;20.85;10.52;;;;;9.90;96409.00;;;;8351887;28;20197;-77
2023/04/19 11:35:30;;;;;;;23.20;11.48;;;;;9.90;96407.00;;;;8362220;28;20362;-78
2023/04/19 11:39:33;;;;;;;31.15;13.82;;;;;9.80;96408.00;;;;8355686;28;20200;-75
2023/04/19 11:43:37;;;;;;;24.45;10.48;;;;;9.80;96395.00;;;;8352571;28;20201;-74
2023/04/19 11:47:53;;;;;;;24.90;12.45;;;;;9.70;96391.00;;;;8359060;28;20208;-74
2023/04/19 11:51:59;;;;;;;19.92;8.73;;;;;9.80;96394.00;;;;8356519;28;20194;-74
2023/04/19 11:56:08;;;;;;;23.20;11.52;;;;;9.80;96392.00;;;;8353238;28;20627;-74
2023/04/19 12:00:13;;;;;;;19.50;10.17;;;;;9.90;96402.00;;;;8361468;28;20181;-73
2023/04/19 12:04:22;;;;;;;20.13;10.27;;;;;10.00;96402.00;;;;8353232;28;20905;-74
2023/04/19 12:08:36;;;;;;;16.13;9.55;;;;;10.10;96393.00;;;;8355850;28;20197;-74
2023/04/19 12:12:42;;;;;;;17.50;9.48;;;;;10.20;96396.00;;;;8360331;28;20199;-75
2023/04/19 12:16:46;;;;;;;15.82;8.10;;;;;10.40;96393.00;;;;8353486;28;20234;-73
2023/04/19 12:20:54;;;;;;;12.65;7.32;;;;;10.40;96385.00;;;;8349534;28;20266;-74
2023/04/19 12:24:57;;;;;;;11.75;7.70;;;;;10.50;96386.00;;;;8356717;28;20631;-74
2023/04/19 12:29:01;;;;;;;12.55;7.93;;;;;10.70;96375.00;;;;8360968;28;20243;-76
2023/04/19 12:33:05;;;;;;;13.52;8.30;;;;;11.10;96377.00;;;;8362944;28;20197;-72
2023/04/19 12:37:10;;;;;;;10.48;7.30;;;;;11.60;96377.00;;;;8362172;28;20227;-72
2023/04/19 12:41:13;;;;;;;8.18;6.05;;;;;11.90;96370.00;;;;8361781;28;20205;-73
2023/04/19 12:45:19;;;;;;;8.15;5.65;;;;;11.90;96364.00;;;;8357387;28;20741;-74
2023/04/19 12:49:30;;;;;;;11.18;5.28;;;;;11.70;96358.00;;;;8358215;28;20289;-72
2023/04/19 12:53:37;;;;;;;7.85;4.68;;;;;11.70;96357.00;;;;8339636;28;20274;-73
2023/04/19 12:57:43;;;;;;;7.63;4.43;;;;;12.00;96359.00;;;;8356045;28;20230;-73
2023/04/19 13:01:47;;;;;;;5.07;4.43;;;;;12.30;96357.00;;;;8355123;28;20223;-74
2023/04/19 13:05:52;;;;;;;5.07;4.47;;;;;12.30;96355.00;;;;8353486;28;20202;-76
2023/04/19 13:09:58;;;;;;;5.68;4.20;;;;;12.20;96354.00;;;;8358009;28;20215;-74
2023/04/19 13:14:03;;;;;;;5.75;3.53;;;;;12.40;96354.00;;;;8349212;28;20701;-72
2023/04/19 13:18:13;;;;;;;4.32;3.60;;;;;12.50;96350.00;;;;8362128;28;20332;-74
2023/04/19 13:22:18;;;;;;;5.93;4.20;;;;;12.30;96345.00;;;;8355713;28;20268;-75
2023/04/19 13:26:23;;;;;;;5.75;3.83;;;;;12.20;96348.00;;;;8355709;28;20194;-73
2023/04/19 13:30:26;;;;;;;5.28;3.55;;;;;12.10;96335.00;;;;8368703;28;20676;-70
2023/04/19 13:34:30;;;;;;;3.40;3.03;;;;;12.00;96329.00;;;;8351113;28;20199;-73
2023/04/19 13:38:33;;;;;;;5.13;3.15;;;;;12.30;96323.00;;;;8354056;28;20286;-72
2023/04/19 13:42:37;;;;;;;5.75;3.70;;;;;12.70;96323.00;;;;8361750;28;20261;-72
2023/04/19 13:46:43;;;;;;;4.90;3.03;;;;;12.50;96316.00;;;;8353341;28;20204;-72
2023/04/19 13:50:48;;;;;;;3.42;2.97;;;;;12.70;96308.00;;;;8357579;28;20300;-71
2023/04/19 13:54:55;;;;;;;5.53;2.30;;;;;12.90;96307.00;;;;8351386;28;20291;-74
2023/04/19 13:59:03;;;;;;;2.90;2.60;;;;;12.70;96302.00;;;;8354058;28;20220;-74
2023/04/19 14:03:08;;;;;;;5.03;3.05;;;;;12.40;96308.00;;;;8363087;28;20230;-72
2023/04/19 14:07:11;;;;;;;7.38;2.72;;;;;12.20;96295.00;;;;8356329;28;20204;-70
2023/04/19 14:11:33;;;;;;;2.20;2.00;;;;;12.60;96293.00;;;;8358382;28;20215;-70
2023/04/19 14:15:39;;;;;;;3.55;2.40;;;;;13.20;96282.00;;;;8364178;28;20245;-71
2023/04/19 14:19:42;;;;;;;2.40;2.22;;;;;13.90;96286.00;;;;8356219;28;20224;-69
2023/04/19 14:23:46;;;;;;;3.58;2.50;;;;;14.80;96292.00;;;;8359903;28;20950;-71
2023/04/19 14:27:49;;;;;;;2.65;2.22;;;;;15.30;96287.00;;;;8353227;28;20249;-72
2023/04/19 14:31:53;;;;;;;3.97;2.55;;;;;15.80;96275.00;;;;8337330;28;20201;-70
2023/04/19 14:35:57;;;;;;;2.85;2.38;;;;;16.30;96280.00;;;;8357562;28;20199;-71
2023/04/19 14:40:00;;;;;;;2.50;2.30;;;;;15.80;96274.00;;;;8356863;28;20198;-69
2023/04/19 14:44:06;;;;;;;5.03;3.00;;;;;15.30;96284.00;;;;8353032;28;20650;-70
2023/04/19 14:48:12;;;;;;;5.75;4.18;;;;;15.60;96287.00;;;;8350496;28;20193;-69
2023/04/19 14:52:21;;;;;;;6.65;5.30;;;;;15.70;96289.00;;;;8359282;28;20200;-71
2023/04/19 14:56:24;;;;;;;14.32;8.75;;;;;15.30;96294.00;;;;8359238;28;20215;-70
2023/04/19 15:00:27;;;;;;;10.95;8.05;;;;;15.10;96283.00;;;;8363328;28;20197;-70
2023/04/19 15:04:34;;;;;;;19.63;11.48;;;;;14.80;96288.00;;;;8356987;28;20609;-71
2023/04/19 15:08:45;;;;;;;7.53;5.25;;;;;14.60;96290.00;;;;8355431;28;20643;-71
2023/04/19 15:12:48;;;;;;;6.20;4.20;;;;;14.30;96291.00;;;;8365831;28;20203;-71
2023/04/19 15:16:51;;;;;;;7.32;4.65;;;;;14.20;96285.00;;;;8359396;28;20854;-71
2023/04/19 15:20:59;;;;;;;6.47;4.35;;;;;14.40;96270.00;;;;8344887;28;20212;-71
2023/04/19 15:25:04;;;;;;;3.38;3.17;;;;;14.60;96294.00;;;;8299560;28;20233;-71
2023/04/19 15:29:10;;;;;;;9.07;4.60;;;;;14.40;96301.00;;;;8291341;28;20215;-72
2023/04/19 15:33:15;;;;;;;5.88;3.58;;;;;14.40;96310.00;;;;8290424;28;20200;-72
2023/04/19 15:37:19;;;;;;;4.85;2.95;;;;;14.50;96297.00;;;;8289960;28;20231;-72
2023/04/19 15:41:23;;;;;;;9.02;2.92;;;;;14.60;96290.00;;;;8274696;28;20788;-72
2023/04/19 15:45:27;;;;;;;5.10;2.50;;;;;14.60;96295.00;;;;8287317;28;20268;-72
2023/04/19 15:49:35;;;;;;;5.72;2.78;;;;;14.60;96298.00;;;;8262850;28;20198;-74
2023/04/19 15:53:40;;;;;;;5.25;2.55;;;;;14.60;96307.00;;;;8276154;28;20213;-75
2023/04/19 15:57:48;;;;;;;3.75;2.80;;;;;14.50;96307.00;;;;8280732;28;20233;-72
2023/04/19 16:01:52;;;;;;;3.17;2.60;;;;;14.50;96311.00;;;;8284933;28;20238;-74
2023/04/19 16:05:55;;;;;;;3.13;2.90;;;;;13.90;96313.00;;;;8270458;28;20203;-73
2023/04/19 16:10:02;;;;;;;5.90;3.58;;;;;13.50;96307.00;;;;8267790;28;20195;-73
2023/04/19 16:14:05;;;;;;;4.55;2.65;;;;;13.00;96311.00;;;;8261792;28;20200;-72
2023/04/19 16:18:11;;;;;;;2.90;2.70;;;;;12.70;96312.00;;;;8256745;28;20308;-73
2023/04/19 16:22:14;;;;;;;5.20;3.28;;;;;12.50;96316.00;;;;8255950;28;20248;-72
2023/04/19 16:26:18;;;;;;;4.20;2.80;;;;;12.40;96328.00;;;;8273519;28;20330;-74
2023/04/19 16:30:22;;;;;;;3.45;3.00;;;;;12.30;96320.00;;;;8264092;28;20248;-72
2023/04/19 16:34:26;;;;;;;3.00;2.80;;;;;12.20;96327.00;;;;8271064;28;20842;-71
2023/04/19 16:38:35;;;;;;;3.08;2.72;;;;;12.60;96328.00;;;;8265899;28;20353;-72
2023/04/19 16:42:40;;;;;;;4.50;2.83;;;;;13.20;96321.00;;;;8240486;28;20243;-74
2023/04/19 16:46:43;;;;;;;6.30;2.80;;;;;13.60;96324.00;;;;8255725;28;20320;-72
2023/04/19 16:50:49;;;;;;;4.68;2.90;;;;;13.80;96326.00;;;;8252634;28;20202;-73
2023/04/19 16:54:53;;;;;;;4.20;2.80;;;;;14.10;96316.00;;;;8236195;28;20198;-73
2023/04/19 16:59:01;;;;;;;2.72;2.40;;;;;14.10;96322.00;;;;8255015;28;20261;-73
2023/04/19 17:03:07;;;;;;;3.65;3.17;;;;;14.30;96325.00;;;;8269508;28;20238;-74
2023/04/19 17:07:12;;;;;;;4.18;2.90;;;;;14.20;96329.00;;;;8288994;28;20201;-73
2023/04/19 17:11:16;;;;;;;3.00;2.60;;;;;14.10;96320.00;;;;8283886;28;20255;-71
2023/04/19 17:15:23;;;;;;;7.18;3.75;;;;;13.70;96321.00;;;;8285036;28;20202;-72
2023/04/19 17:19:30;;;;;;;4.35;3.25;;;;;13.10;96335.00;;;;8265476;28;20218;-73
2023/04/19 17:23:35;;;;;;;6.07;2.80;;;;;12.50;96336.00;;;;8290912;28;20587;-73
2023/04/19 17:27:44;;;;;;;3.65;3.30;;;;;12.10;96332.00;;;;8286744;28;20669;-73
2023/04/19 17:31:54;;;;;;;4.20;2.70;;;;;11.70;96338.00;;;;8288535;28;20206;-73
2023/04/19 17:35:59;;;;;;;3.03;2.58;;;;;11.40;96340.00;;;;8297519;28;20239;-73
2023/04/19 17:40:06;;;;;;;3.33;2.80;;;;;11.20;96339.00;;;;8290639;28;20278;-73
2023/04/19 17:44:11;;;;;;;3.03;2.65;;;;;11.00;96339.00;;;;8284859;28;20185;-73
2023/04/19 17:48:18;;;;;;;3.28;2.90;;;;;10.80;96338.00;;;;8297013;28;20256;-73
2023/04/19 17:52:30;;;;;;;3.38;2.65;;;;;10.60;96342.00;;;;8295664;28;20982;-74
2023/04/19 17:56:35;;;;;;;2.60;2.40;;;;;10.40;96345.00;;;;8296372;28;20531;-73
2023/04/19 18:00:40;;;;;;;4.30;2.88;;;;;10.30;96347.00;;;;8284415;28;20242;-73
2023/04/19 18:04:45;;;;;;;3.65;2.85;;;;;10.20;96338.00;;;;8286269;28;21221;-73
2023/04/19 18:08:48;;;;;;;2.83;2.60;;;;;10.00;96352.00;;;;8300448;28;20252;-73
2023/04/19 18:12:52;;;;;;;7.38;2.58;;;;;9.90;96353.00;;;;8289187;28;20559;-73
2023/04/19 18:16:57;;;;;;;5.40;3.33;;;;;9.70;96355.00;;;;8269547;28;20599;-74
2023/04/19 18:21:08;;;;;;;3.33;2.50;;;;;9.60;96364.00;;;;8287842;28;21085;-75
2023/04/19 18:25:11;;;;;;;5.72;3.33;;;;;9.40;96351.00;;;;8285272;28;20686;-74
2023/04/19 18:29:15;;;;;;;4.55;2.97;;;;;9.30;96359.00;;;;8286153;28;20202;-73
2023/04/19 18:33:21;;;;;;;4.63;3.17;;;;;9.10;96370.00;;;;8270288;28;20651;-74
2023/04/19 18:37:27;;;;;;;3.15;2.85;;;;;9.00;96367.00;;;;8287444;28;20210;-74
2023/04/19 18:41:30;;;;;;;3.00;2.47;;;;;8.80;96373.00;;;;8289696;28;20280;-73
2023/04/19 18:45:33;;;;;;;5.70;3.20;;;;;8.70;96366.00;;;;8293413;28;20255;-73
2023/04/19 18:49:36;;;;;;;3.27;2.93;;;;;8.60;96369.00;;;;8286333;28;20233;-73
2023/04/19 18:53:43;;;;;;;5.45;3.35;;;;;8.50;96373.00;;;;8301391;28;20293;-73
2023/04/19 18:57:49;;;;;;;4.47;3.00;;;;;8.30;96375.00;;;;8292751;28;20258;-72
2023/04/19 19:01:55;;;;;;;8.53;4.50;;;;;8.20;96367.00;;;;8289515;28;20229;-72
2023/04/19 19:05:59;;;;;;;9.03;3.93;;;;;8.10;96369.00;;;;8299071;28;20202;-73
2023/04/19 19:10:07;;;;;;;4.63;3.40;;;;;8.10;96373.00;;;;8286668;28;20234;-73
2023/04/19 19:14:17;;;;;;;3.60;3.10;;;;;8.00;96369.00;;;;8269628;28;20202;-74
2023/04/19 19:18:23;;;;;;;4.97;3.80;;;;;7.90;96378.00;;;;8290960;28;20225;-73
2023/04/19 19:22:29;;;;;;;5.43;3.53;;;;;7.90;96374.00;;;;8303676;28;20306;-73
2023/04/19 19:26:34;;;;;;;3.45;3.13;;;;;7.80;96383.00;;;;8298414;28;20869;-74
2023/04/19 19:30:43;;;;;;;7.83;3.53;;;;;7.70;96381.00;;;;8291820;28;20675;-73
2023/04/19 19:34:48;;;;;;;4.30;3.20;;;;;7.60;96383.00;;;;8294668;28;20288;-73
2023/04/19 19:38:54;;;;;;;4.33;3.43;;;;;7.50;96384.00;;;;8288657;28;20230;-72
2023/04/19 19:42:59;;;;;;;6.67;3.57;;;;;7.40;96384.00;;;;8289217;28;20198;-73
2023/04/19 19:47:02;;;;;;;5.43;3.03;;;;;7.30;96383.00;;;;8294708;28;20198;-73
2023/04/19 19:51:12;;;;;;;3.60;3.30;;;;;7.30;96386.00;;;;8288593;28;20229;-73
2023/04/19 19:55:35;;;;;;;8.57;4.73;;;;;7.20;96376.00;;;;8288191;28;20206;-73
2023/04/19 19:59:43;;;;;;;6.37;3.90;;;;;7.00;96385.00;;;;8287584;28;20259;-73
2023/04/19 20:03:56;;;;;;;6.07;3.70;;;;;6.90;96380.00;;;;8286169;28;20236;-73
2023/04/19 20:08:06;;;;;;;9.03;5.30;;;;;6.90;96387.00;;;;8277157;28;20210;-73
2023/04/19 20:12:15;;;;;;;8.53;5.73;;;;;6.80;96389.00;;;;8292973;28;20198;-73
2023/04/19 20:16:19;;;;;;;9.30;5.47;;;;;6.60;96393.00;;;;8283609;28;20679;-74
2023/04/19 20:20:25;;;;;;;6.93;4.20;;;;;6.50;96394.00;;;;8282494;28;20264;-73